createdAt,value
2017-02-18T00:00:04.239Z,0
2017-02-18T00:01:14.005Z,0
2017-02-18T00:02:25.054Z,0
2017-02-18T00:03:35.356Z,0
2017-02-18T00:04:45.105Z,0
2017-02-18T00:05:56.175Z,0
2017-02-18T00:07:05.485Z,0
2017-02-18T00:08:14.817Z,0
2017-02-18T00:09:24.626Z,0
2017-02-18T00:10:33.923Z,0
2017-02-18T00:11:43.262Z,0
2017-02-18T00:12:53.023Z,0
2017-02-18T00:14:02.770Z,0
2017-02-18T00:15:12.568Z,0
2017-02-18T00:16:22.321Z,0
2017-02-18T00:17:32.070Z,0
2017-02-18T00:18:41.388Z,0
2017-02-18T00:19:50.722Z,0
2017-02-18T00:21:00.135Z,0
2017-02-18T00:22:09.445Z,0
2017-02-18T00:23:20.083Z,0
2017-02-18T00:24:29.828Z,0
2017-02-18T00:25:40.010Z,0
2017-02-18T00:26:50.683Z,0
2017-02-18T00:28:00.865Z,0
2017-02-18T00:29:11.045Z,0
2017-02-18T00:30:21.219Z,0
2017-02-18T00:31:30.972Z,0
2017-02-18T00:32:41.637Z,0
2017-02-18T00:33:52.274Z,0
2017-02-18T00:35:02.023Z,0
2017-02-18T00:36:12.204Z,0
2017-02-18T00:37:22.822Z,0
2017-02-18T00:38:33.067Z,0
2017-02-18T00:39:42.388Z,0
2017-02-18T00:40:52.143Z,0
2017-02-18T00:42:01.452Z,0
2017-02-18T00:43:11.235Z,0
2017-02-18T00:44:21.031Z,0
2017-02-18T00:45:30.767Z,0
2017-02-18T00:46:40.527Z,0
2017-02-18T00:47:50.749Z,0
2017-02-18T00:49:00.495Z,0
2017-02-18T00:50:09.859Z,0
2017-02-18T00:51:19.172Z,0
2017-02-18T00:52:28.912Z,0
2017-02-18T00:53:38.662Z,0
2017-02-18T00:54:49.273Z,0
2017-02-18T00:55:59.524Z,0
2017-02-18T00:57:09.273Z,0
2017-02-18T00:58:19.479Z,0
2017-02-18T00:59:29.254Z,0
2017-02-18T01:00:39.013Z,0
2017-02-18T01:01:49.238Z,0
2017-02-18T01:03:00.291Z,0
2017-02-18T01:04:10.470Z,0
2017-02-18T01:05:19.793Z,0
2017-02-18T01:06:29.980Z,0
2017-02-18T01:07:39.802Z,0
2017-02-18T01:08:49.533Z,0
2017-02-18T01:09:59.730Z,0
2017-02-18T01:11:09.912Z,0
2017-02-18T01:12:20.105Z,0
2017-02-18T01:13:29.907Z,0
2017-02-18T01:14:40.532Z,0
2017-02-18T01:15:50.277Z,0
2017-02-18T01:17:00.453Z,0
2017-02-18T01:18:10.646Z,0
2017-02-18T01:19:21.352Z,0
2017-02-18T01:20:31.100Z,0
2017-02-18T01:21:40.842Z,0
2017-02-18T01:22:51.011Z,0
2017-02-18T01:24:00.768Z,0
2017-02-18T01:25:11.031Z,0
2017-02-18T01:26:20.330Z,0
2017-02-18T01:27:30.939Z,0
2017-02-18T01:28:41.565Z,0
2017-02-18T01:29:51.754Z,0
2017-02-18T01:31:01.141Z,0
2017-02-18T01:32:11.348Z,0
2017-02-18T01:33:21.522Z,0
2017-02-18T01:34:31.258Z,0
2017-02-18T01:35:41.890Z,0
2017-02-18T01:36:52.551Z,0
2017-02-18T01:38:02.302Z,0
2017-02-18T01:39:12.501Z,0
2017-02-18T01:40:23.130Z,0
2017-02-18T01:41:32.891Z,0
2017-02-18T01:42:44.004Z,0
2017-02-18T01:43:53.798Z,0
2017-02-18T01:45:03.568Z,0
2017-02-18T01:46:13.774Z,0
2017-02-18T01:47:23.521Z,0
2017-02-18T01:48:33.758Z,0
2017-02-18T01:49:43.499Z,0
2017-02-18T01:50:53.691Z,0
2017-02-18T01:52:03.461Z,0
2017-02-18T01:53:12.769Z,0
2017-02-18T01:54:22.561Z,0
2017-02-18T01:55:32.308Z,0
2017-02-18T01:56:42.485Z,0
2017-02-18T01:57:52.659Z,0
2017-02-18T01:59:02.409Z,0
2017-02-18T02:00:11.771Z,0
2017-02-18T02:01:21.077Z,0
2017-02-18T02:02:30.863Z,0
2017-02-18T02:03:40.620Z,0
2017-02-18T02:04:50.417Z,0
2017-02-18T02:06:00.218Z,0
2017-02-18T02:07:09.960Z,0
2017-02-18T02:08:19.714Z,0
2017-02-18T02:09:29.031Z,0
2017-02-18T02:10:38.344Z,0
2017-02-18T02:11:48.153Z,0
2017-02-18T02:12:58.336Z,0
2017-02-18T02:14:08.103Z,0
2017-02-18T02:15:18.289Z,0
2017-02-18T02:16:28.049Z,0
2017-02-18T02:17:37.847Z,0
2017-02-18T02:18:48.023Z,0
2017-02-18T02:19:58.217Z,0
2017-02-18T02:21:07.973Z,0
2017-02-18T02:22:18.609Z,0
2017-02-18T02:23:27.977Z,0
2017-02-18T02:24:38.151Z,0
2017-02-18T02:25:47.912Z,0
2017-02-18T02:26:57.654Z,0
2017-02-18T02:28:07.394Z,0
2017-02-18T02:29:17.415Z,0
2017-02-18T02:30:26.741Z,0
2017-02-18T02:31:36.483Z,0
2017-02-18T02:32:46.660Z,0
2017-02-18T02:33:56.843Z,0
2017-02-18T02:35:07.102Z,0
2017-02-18T02:36:16.423Z,0
2017-02-18T02:37:26.623Z,0
2017-02-18T02:38:36.384Z,0
2017-02-18T02:39:46.163Z,0
2017-02-18T02:40:56.395Z,0
2017-02-18T02:42:05.716Z,0
2017-02-18T02:43:15.498Z,0
2017-02-18T02:44:25.267Z,0
2017-02-18T02:45:35.051Z,0
2017-02-18T02:46:44.434Z,0
2017-02-18T02:47:54.189Z,0
2017-02-18T02:49:03.935Z,0
2017-02-18T02:50:14.144Z,0
2017-02-18T02:51:24.772Z,0
2017-02-18T02:52:35.207Z,0
2017-02-18T02:53:44.532Z,0
2017-02-18T02:54:54.295Z,0
2017-02-18T02:56:04.511Z,0
2017-02-18T02:57:13.846Z,0
2017-02-18T02:58:24.251Z,0
2017-02-18T02:59:34.465Z,0
2017-02-18T03:00:44.218Z,0
2017-02-18T03:01:53.977Z,0
2017-02-18T03:03:03.713Z,0
2017-02-18T03:04:13.103Z,0
2017-02-18T03:05:23.298Z,0
2017-02-18T03:06:33.070Z,0
2017-02-18T03:07:42.404Z,0
2017-02-18T03:08:52.168Z,0
2017-02-18T03:10:01.997Z,0
2017-02-18T03:11:11.334Z,0
2017-02-18T03:12:21.092Z,0
2017-02-18T03:13:31.296Z,0
2017-02-18T03:14:40.616Z,0
2017-02-18T03:15:50.454Z,0
2017-02-18T03:17:00.283Z,0
2017-02-18T03:18:09.597Z,0
2017-02-18T03:19:19.378Z,0
2017-02-18T03:20:29.583Z,0
2017-02-18T03:21:39.828Z,0
2017-02-18T03:22:49.141Z,0
2017-02-18T03:23:58.887Z,0
2017-02-18T03:25:08.206Z,0
2017-02-18T03:26:18.406Z,0
2017-02-18T03:27:28.221Z,0
2017-02-18T03:28:38.082Z,0
2017-02-18T03:29:48.721Z,0
2017-02-18T03:30:58.484Z,0
2017-02-18T03:32:08.685Z,0
2017-02-18T03:33:18.492Z,0
2017-02-18T03:34:27.805Z,0
2017-02-18T03:35:38.499Z,0
2017-02-18T03:36:48.690Z,0
2017-02-18T03:37:58.455Z,0
2017-02-18T03:39:08.849Z,0
2017-02-18T03:40:18.211Z,0
2017-02-18T03:41:27.977Z,0
2017-02-18T03:42:37.741Z,0
2017-02-18T03:43:47.483Z,0
2017-02-18T03:44:57.292Z,0
2017-02-18T03:46:06.600Z,0
2017-02-18T03:47:16.362Z,0
2017-02-18T03:48:26.595Z,0
2017-02-18T03:49:35.953Z,0
2017-02-18T03:50:45.798Z,0
2017-02-18T03:51:55.963Z,0
2017-02-18T03:53:05.324Z,0
2017-02-18T03:54:15.072Z,0
2017-02-18T03:55:25.693Z,0
2017-02-18T03:56:35.534Z,0
2017-02-18T03:57:45.733Z,0
2017-02-18T03:58:55.504Z,0
2017-02-18T04:00:04.815Z,0
2017-02-18T04:01:14.137Z,0
2017-02-18T04:02:23.953Z,0
2017-02-18T04:03:33.257Z,0
2017-02-18T04:04:43.455Z,0
2017-02-18T04:05:53.653Z,0
2017-02-18T04:07:03.418Z,0
2017-02-18T04:08:13.210Z,0
2017-02-18T04:09:23.430Z,0
2017-02-18T04:10:32.742Z,0
2017-02-18T04:11:42.931Z,0
2017-02-18T04:12:53.560Z,0
2017-02-18T04:14:02.945Z,0
2017-02-18T04:15:12.693Z,0
2017-02-18T04:16:22.016Z,0
2017-02-18T04:17:31.765Z,0
2017-02-18T04:18:41.946Z,0
2017-02-18T04:19:51.760Z,0
2017-02-18T04:21:01.945Z,0
2017-02-18T04:22:12.584Z,0
2017-02-18T04:23:22.363Z,0
2017-02-18T04:24:31.703Z,0
2017-02-18T04:25:41.941Z,0
2017-02-18T04:26:51.693Z,0
2017-02-18T04:28:01.900Z,0
2017-02-18T04:29:11.228Z,0
2017-02-18T04:30:20.538Z,0
2017-02-18T04:31:30.426Z,0
2017-02-18T04:32:40.617Z,0
2017-02-18T04:33:50.430Z,0
2017-02-18T04:34:59.767Z,0
2017-02-18T04:36:09.099Z,0
2017-02-18T04:37:18.465Z,0
2017-02-18T04:38:28.236Z,0
2017-02-18T04:39:38.049Z,0
2017-02-18T04:40:48.699Z,0
2017-02-18T04:41:59.348Z,0
2017-02-18T04:43:10.480Z,0
2017-02-18T04:44:21.179Z,0
2017-02-18T04:45:31.367Z,0
2017-02-18T04:46:42.022Z,0
2017-02-18T04:47:52.210Z,0
2017-02-18T04:49:02.441Z,0
2017-02-18T04:50:11.773Z,0
2017-02-18T04:51:21.972Z,0
2017-02-18T04:52:31.720Z,0
2017-02-18T04:53:41.469Z,0
2017-02-18T04:54:51.730Z,0
2017-02-18T04:56:01.917Z,0
2017-02-18T04:57:12.104Z,0
2017-02-18T04:58:21.417Z,0
2017-02-18T04:59:31.187Z,0
2017-02-18T05:00:41.006Z,0
2017-02-18T05:01:50.761Z,0
2017-02-18T05:03:00.067Z,0
2017-02-18T05:04:09.372Z,0
2017-02-18T05:05:19.580Z,0
2017-02-18T05:06:30.286Z,0
2017-02-18T05:07:40.912Z,0
2017-02-18T05:08:51.088Z,0
2017-02-18T05:10:00.834Z,0
2017-02-18T05:11:10.148Z,0
2017-02-18T05:12:19.984Z,0
2017-02-18T05:13:29.762Z,0
2017-02-18T05:14:39.096Z,0
2017-02-18T05:15:49.297Z,0
2017-02-18T05:16:59.050Z,0
2017-02-18T05:18:09.280Z,0
2017-02-18T05:19:19.459Z,0
2017-02-18T05:20:29.681Z,0
2017-02-18T05:21:40.317Z,0
2017-02-18T05:22:50.495Z,0
2017-02-18T05:23:59.897Z,0
2017-02-18T05:25:09.670Z,0
2017-02-18T05:26:19.415Z,0
2017-02-18T05:27:28.720Z,0
2017-02-18T05:28:38.921Z,0
2017-02-18T05:29:49.165Z,0
2017-02-18T05:30:58.942Z,0
2017-02-18T05:32:09.155Z,0
2017-02-18T05:33:18.490Z,0
2017-02-18T05:34:27.815Z,0
2017-02-18T05:35:37.624Z,0
2017-02-18T05:36:46.942Z,0
2017-02-18T05:37:56.685Z,0
2017-02-18T05:39:06.440Z,0
2017-02-18T05:40:16.640Z,0
2017-02-18T05:41:27.322Z,0
2017-02-18T05:42:36.628Z,0
2017-02-18T05:43:45.985Z,0
2017-02-18T05:44:55.741Z,0
2017-02-18T05:46:05.507Z,0
2017-02-18T05:47:15.329Z,0
2017-02-18T05:48:25.134Z,0
2017-02-18T05:49:35.311Z,0
2017-02-18T05:50:45.069Z,0
2017-02-18T05:51:55.293Z,0
2017-02-18T05:53:05.530Z,0
2017-02-18T05:54:15.290Z,0
2017-02-18T05:55:25.485Z,0
2017-02-18T05:56:35.249Z,0
2017-02-18T05:57:45.445Z,0
2017-02-18T05:58:56.131Z,0
2017-02-18T06:00:05.889Z,0
2017-02-18T06:01:15.641Z,0
2017-02-18T06:02:24.955Z,0
2017-02-18T06:03:35.148Z,0
2017-02-18T06:04:44.542Z,0
2017-02-18T06:05:54.719Z,4
2017-02-18T06:07:04.910Z,4
2017-02-18T06:08:14.660Z,4
2017-02-18T06:09:25.305Z,0
2017-02-18T06:10:35.559Z,4
2017-02-18T06:11:45.749Z,4
2017-02-18T06:12:55.490Z,4
2017-02-18T06:14:05.235Z,8
2017-02-18T06:15:15.437Z,4
2017-02-18T06:16:25.242Z,8
2017-02-18T06:17:35.445Z,8
2017-02-18T06:18:46.103Z,8
2017-02-18T06:19:56.297Z,12
2017-02-18T06:21:06.481Z,12
2017-02-18T06:22:16.739Z,16
2017-02-18T06:23:26.060Z,20
2017-02-18T06:24:35.802Z,20
2017-02-18T06:25:45.548Z,24
2017-02-18T06:26:56.621Z,28
2017-02-18T06:28:06.433Z,32
2017-02-18T06:29:15.759Z,32
2017-02-18T06:30:25.530Z,36
2017-02-18T06:31:34.857Z,40
2017-02-18T06:32:44.626Z,48
2017-02-18T06:33:55.024Z,52
2017-02-18T06:35:04.800Z,68
2017-02-18T06:36:14.561Z,76
2017-02-18T06:37:23.901Z,92
2017-02-18T06:38:34.082Z,112
2017-02-18T06:39:43.476Z,124
2017-02-18T06:40:53.247Z,108
2017-02-18T06:42:02.988Z,104
2017-02-18T06:43:12.324Z,116
2017-02-18T06:44:22.102Z,128
2017-02-18T06:45:31.904Z,132
2017-02-18T06:46:41.655Z,144
2017-02-18T06:47:51.842Z,148
2017-02-18T06:49:01.600Z,140
2017-02-18T06:50:11.830Z,140
2017-02-18T06:51:21.645Z,152
2017-02-18T06:52:31.834Z,168
2017-02-18T06:53:42.018Z,192
2017-02-18T06:54:52.248Z,220
2017-02-18T06:56:02.033Z,232
2017-02-18T06:57:12.263Z,236
2017-02-18T06:58:21.580Z,248
2017-02-18T06:59:31.766Z,240
2017-02-18T07:00:41.529Z,276
2017-02-18T07:01:52.163Z,280
2017-02-18T07:03:02.398Z,300
2017-02-18T07:04:12.608Z,308
2017-02-18T07:05:22.402Z,292
2017-02-18T07:06:32.632Z,324
2017-02-18T07:07:42.845Z,368
2017-02-18T07:08:53.283Z,384
2017-02-18T07:10:03.047Z,408
2017-02-18T07:11:12.797Z,404
2017-02-18T07:12:23.018Z,384
2017-02-18T07:13:32.772Z,344
2017-02-18T07:14:42.139Z,352
2017-02-18T07:15:52.352Z,368
2017-02-18T07:17:01.665Z,396
2017-02-18T07:18:11.418Z,388
2017-02-18T07:19:21.608Z,408
2017-02-18T07:20:31.409Z,456
2017-02-18T07:21:41.617Z,484
2017-02-18T07:22:51.825Z,448
2017-02-18T07:24:01.576Z,480
2017-02-18T07:25:11.799Z,468
2017-02-18T07:26:22.087Z,532
2017-02-18T07:27:31.843Z,556
2017-02-18T07:28:41.587Z,560
2017-02-18T07:29:51.340Z,580
2017-02-18T07:31:01.133Z,612
2017-02-18T07:32:10.982Z,592
2017-02-18T07:33:21.191Z,560
2017-02-18T07:34:30.507Z,568
2017-02-18T07:35:40.690Z,648
2017-02-18T07:36:50.898Z,712
2017-02-18T07:38:00.700Z,716
2017-02-18T07:39:10.462Z,796
2017-02-18T07:40:21.113Z,880
2017-02-18T07:41:31.306Z,840
2017-02-18T07:42:40.628Z,792
2017-02-18T07:43:49.986Z,784
2017-02-18T07:45:00.181Z,840
2017-02-18T07:46:09.939Z,920
2017-02-18T07:47:19.681Z,900
2017-02-18T07:48:29.871Z,868
2017-02-18T07:49:40.123Z,872
2017-02-18T07:50:49.875Z,948
2017-02-18T07:52:00.490Z,1064
2017-02-18T07:53:10.283Z,1132
2017-02-18T07:54:19.689Z,1176
2017-02-18T07:55:29.070Z,1232
2017-02-18T07:56:38.841Z,1184
2017-02-18T07:57:49.540Z,1004
2017-02-18T07:58:59.332Z,884
2017-02-18T08:00:09.571Z,924
2017-02-18T08:01:19.404Z,1056
2017-02-18T08:02:28.737Z,1228
2017-02-18T08:03:38.510Z,1360
2017-02-18T08:04:47.835Z,1436
2017-02-18T08:05:57.139Z,1388
2017-02-18T08:07:06.509Z,1452
2017-02-18T08:08:15.845Z,1468
2017-02-18T08:09:26.023Z,1372
2017-02-18T08:10:36.205Z,1336
2017-02-18T08:11:45.978Z,1364
2017-02-18T08:12:55.785Z,1328
2017-02-18T08:14:05.971Z,1364
2017-02-18T08:15:15.779Z,1420
2017-02-18T08:16:26.398Z,1328
2017-02-18T08:17:36.181Z,1228
2017-02-18T08:18:45.992Z,1344
2017-02-18T08:19:55.318Z,1612
2017-02-18T08:21:05.067Z,1580
2017-02-18T08:22:15.244Z,1344
2017-02-18T08:23:25.434Z,1248
2017-02-18T08:24:35.239Z,1336
2017-02-18T08:25:44.564Z,1432
2017-02-18T08:26:53.878Z,1440
2017-02-18T08:28:04.079Z,1476
2017-02-18T08:29:13.386Z,1508
2017-02-18T08:30:23.196Z,1276
2017-02-18T08:31:33.833Z,1156
2017-02-18T08:32:44.043Z,1116
2017-02-18T08:33:55.117Z,1064
2017-02-18T08:35:05.320Z,1044
2017-02-18T08:36:15.111Z,1132
2017-02-18T08:37:24.852Z,1352
2017-02-18T08:38:34.605Z,1516
2017-02-18T08:39:44.354Z,1676
2017-02-18T08:40:54.103Z,1524
2017-02-18T08:42:03.475Z,1384
2017-02-18T08:43:13.237Z,1364
2017-02-18T08:44:22.995Z,1332
2017-02-18T08:45:32.768Z,1292
2017-02-18T08:46:42.544Z,1244
2017-02-18T08:47:52.818Z,1328
2017-02-18T08:49:02.575Z,1484
2017-02-18T08:50:13.191Z,1424
2017-02-18T08:51:22.946Z,1488
2017-02-18T08:52:32.692Z,1708
2017-02-18T08:53:42.487Z,1752
2017-02-18T08:54:52.698Z,1788
2017-02-18T08:56:02.011Z,1792
2017-02-18T08:57:11.328Z,1756
2017-02-18T08:58:20.649Z,1724
2017-02-18T08:59:30.039Z,1700
2017-02-18T09:00:39.804Z,1684
2017-02-18T09:01:49.575Z,1704
2017-02-18T09:02:59.790Z,1856
2017-02-18T09:04:09.994Z,2080
2017-02-18T09:05:19.788Z,2148
2017-02-18T09:06:29.566Z,2056
2017-02-18T09:07:39.319Z,1820
2017-02-18T09:08:49.107Z,1664
2017-02-18T09:09:59.749Z,1604
2017-02-18T09:11:09.108Z,1580
2017-02-18T09:12:18.868Z,1628
2017-02-18T09:13:28.199Z,1700
2017-02-18T09:14:38.836Z,1852
2017-02-18T09:15:48.587Z,1864
2017-02-18T09:16:58.846Z,1932
2017-02-18T09:18:08.608Z,2092
2017-02-18T09:19:19.255Z,2216
2017-02-18T09:20:29.904Z,2312
2017-02-18T09:21:40.101Z,2312
2017-02-18T09:22:49.926Z,2412
2017-02-18T09:23:59.706Z,2308
2017-02-18T09:25:09.897Z,2404
2017-02-18T09:26:20.093Z,2660
2017-02-18T09:27:29.848Z,2524
2017-02-18T09:28:39.659Z,2244
2017-02-18T09:29:50.313Z,2204
2017-02-18T09:31:01.393Z,2236
2017-02-18T09:32:10.706Z,2140
2017-02-18T09:33:20.472Z,2248
2017-02-18T09:34:29.980Z,2424
2017-02-18T09:35:40.203Z,2480
2017-02-18T09:36:50.398Z,2324
2017-02-18T09:38:01.497Z,2292
2017-02-18T09:39:10.822Z,2332
2017-02-18T09:40:20.651Z,2604
2017-02-18T09:41:31.293Z,2732
2017-02-18T09:42:41.061Z,2732
2017-02-18T09:43:51.757Z,2892
2017-02-18T09:45:01.093Z,2668
2017-02-18T09:46:10.466Z,2768
2017-02-18T09:47:19.789Z,2992
2017-02-18T09:48:29.996Z,2476
2017-02-18T09:49:40.218Z,2148
2017-02-18T09:50:49.983Z,2132
2017-02-18T09:51:59.900Z,2268
2017-02-18T09:53:09.203Z,2336
2017-02-18T09:54:18.962Z,2476
2017-02-18T09:55:28.291Z,2444
2017-02-18T09:56:38.065Z,2332
2017-02-18T09:57:48.306Z,2336
2017-02-18T09:58:58.085Z,2696
2017-02-18T10:00:07.846Z,2712
2017-02-18T10:01:17.617Z,2584
2017-02-18T10:02:27.354Z,2656
2017-02-18T10:03:37.152Z,2588
2017-02-18T10:04:46.900Z,2692
2017-02-18T10:05:57.110Z,2616
2017-02-18T10:07:07.309Z,2548
2017-02-18T10:08:17.072Z,2432
2017-02-18T10:09:26.876Z,2228
2017-02-18T10:10:37.087Z,2032
2017-02-18T10:11:46.839Z,2092
2017-02-18T10:12:56.153Z,2168
2017-02-18T10:14:05.910Z,2256
2017-02-18T10:15:15.279Z,2188
2017-02-18T10:16:25.045Z,2140
2017-02-18T10:17:34.365Z,2128
2017-02-18T10:18:43.687Z,2336
2017-02-18T10:19:53.016Z,2368
2017-02-18T10:21:02.395Z,2264
2017-02-18T10:22:12.150Z,2456
2017-02-18T10:23:22.776Z,2452
2017-02-18T10:24:32.969Z,2416
2017-02-18T10:25:42.737Z,2348
2017-02-18T10:26:52.543Z,2136
2017-02-18T10:28:02.286Z,2348
2017-02-18T10:29:12.077Z,2620
2017-02-18T10:30:22.702Z,2604
2017-02-18T10:31:32.455Z,2600
2017-02-18T10:32:42.260Z,2948
2017-02-18T10:33:52.005Z,2780
2017-02-18T10:35:01.786Z,2456
2017-02-18T10:36:11.564Z,2548
2017-02-18T10:37:20.877Z,2544
2017-02-18T10:38:31.155Z,2512
2017-02-18T10:39:40.483Z,2488
2017-02-18T10:40:50.666Z,2360
2017-02-18T10:42:00.869Z,2048
2017-02-18T10:43:10.629Z,1900
2017-02-18T10:44:20.423Z,1888
2017-02-18T10:45:30.601Z,1912
2017-02-18T10:46:41.242Z,2160
2017-02-18T10:47:51.879Z,2436
2017-02-18T10:49:01.635Z,2356
2017-02-18T10:50:11.895Z,2152
2017-02-18T10:51:21.219Z,2176
2017-02-18T10:52:30.539Z,2592
2017-02-18T10:53:40.300Z,2716
2017-02-18T10:54:51.813Z,2424
2017-02-18T10:56:01.604Z,2376
2017-02-18T10:57:12.229Z,2500
2017-02-18T10:58:22.022Z,2572
2017-02-18T10:59:32.223Z,2508
2017-02-18T11:00:41.552Z,2432
2017-02-18T11:01:50.913Z,2504
2017-02-18T11:03:01.559Z,2756
2017-02-18T11:04:11.350Z,2900
2017-02-18T11:05:20.664Z,3028
2017-02-18T11:06:30.449Z,3408
2017-02-18T11:07:40.400Z,3444
2017-02-18T11:08:50.173Z,2816
2017-02-18T11:09:59.928Z,3492
2017-02-18T11:11:10.558Z,4532
2017-02-18T11:12:20.333Z,4956
2017-02-18T11:13:29.808Z,5048
2017-02-18T11:14:39.133Z,5152
2017-02-18T11:15:48.907Z,5156
2017-02-18T11:16:58.652Z,5036
2017-02-18T11:18:07.977Z,4888
2017-02-18T11:19:18.215Z,5168
2017-02-18T11:20:27.542Z,5140
2017-02-18T11:21:37.727Z,5172
2017-02-18T11:22:47.917Z,5256
2017-02-18T11:23:57.656Z,5320
2017-02-18T11:25:07.467Z,5316
2017-02-18T11:26:17.213Z,5152
2017-02-18T11:27:27.422Z,5160
2017-02-18T11:28:36.754Z,4996
2017-02-18T11:29:46.495Z,4976
2017-02-18T11:30:57.717Z,4844
2017-02-18T11:32:07.054Z,4580
2017-02-18T11:33:16.372Z,4220
2017-02-18T11:34:26.132Z,4180
2017-02-18T11:35:35.914Z,4180
2017-02-18T11:36:46.164Z,3996
2017-02-18T11:37:55.931Z,3744
2017-02-18T11:39:06.130Z,3624
2017-02-18T11:40:15.894Z,3396
2017-02-18T11:41:26.516Z,3472
2017-02-18T11:42:36.771Z,3492
2017-02-18T11:43:46.979Z,3644
2017-02-18T11:44:57.164Z,3876
2017-02-18T11:46:06.477Z,3872
2017-02-18T11:47:16.233Z,3968
2017-02-18T11:48:27.112Z,3844
2017-02-18T11:49:36.921Z,3796
2017-02-18T11:50:47.110Z,3888
2017-02-18T11:51:56.875Z,4220
2017-02-18T11:53:06.671Z,4216
2017-02-18T11:54:16.477Z,3716
2017-02-18T11:55:26.262Z,3880
2017-02-18T11:56:36.470Z,3840
2017-02-18T11:57:48.702Z,3404
2017-02-18T11:58:58.898Z,3180
2017-02-18T12:00:09.149Z,3072
2017-02-18T12:01:18.916Z,3064
2017-02-18T12:02:28.220Z,3052
2017-02-18T12:03:38.423Z,3416
2017-02-18T12:04:48.216Z,3312
2017-02-18T12:05:58.458Z,3104
2017-02-18T12:07:08.211Z,3524
2017-02-18T12:08:17.960Z,3736
2017-02-18T12:09:28.181Z,3740
2017-02-18T12:10:37.552Z,3760
2017-02-18T12:11:47.372Z,3468
2017-02-18T12:12:58.037Z,3280
2017-02-18T12:14:07.789Z,3168
2017-02-18T12:15:17.551Z,3160
2017-02-18T12:16:26.859Z,3260
2017-02-18T12:17:36.682Z,3364
2017-02-18T12:18:46.010Z,3472
2017-02-18T12:19:55.772Z,3660
2017-02-18T12:21:05.104Z,3448
2017-02-18T12:22:14.870Z,3584
2017-02-18T12:23:24.687Z,3668
2017-02-18T12:24:34.436Z,3004
2017-02-18T12:25:44.197Z,2804
2017-02-18T12:26:53.509Z,2548
2017-02-18T12:28:04.164Z,2508
2017-02-18T12:29:13.967Z,2548
2017-02-18T12:30:24.178Z,2424
2017-02-18T12:31:33.944Z,2340
2017-02-18T12:32:43.697Z,2372
2017-02-18T12:33:54.758Z,2280
2017-02-18T12:35:04.313Z,2412
2017-02-18T12:36:14.931Z,2704
2017-02-18T12:37:25.134Z,2592
2017-02-18T12:38:34.891Z,2560
2017-02-18T12:39:44.650Z,2464
2017-02-18T12:40:54.469Z,2436
2017-02-18T12:42:04.229Z,2696
2017-02-18T12:43:14.419Z,2708
2017-02-18T12:44:24.172Z,2560
2017-02-18T12:45:33.505Z,2516
2017-02-18T12:46:42.862Z,2416
2017-02-18T12:47:52.610Z,2548
2017-02-18T12:49:03.264Z,2496
2017-02-18T12:50:13.475Z,2300
2017-02-18T12:51:22.824Z,2200
2017-02-18T12:52:32.623Z,2472
2017-02-18T12:53:42.388Z,2668
2017-02-18T12:54:52.155Z,2516
2017-02-18T12:56:01.947Z,2300
2017-02-18T12:57:11.716Z,2224
2017-02-18T12:58:21.982Z,2260
2017-02-18T12:59:31.764Z,2420
2017-02-18T13:00:41.528Z,2236
2017-02-18T13:01:51.283Z,2012
2017-02-18T13:03:01.047Z,2216
2017-02-18T13:04:10.439Z,2760
2017-02-18T13:05:20.636Z,2572
2017-02-18T13:06:31.263Z,2608
2017-02-18T13:07:41.008Z,2716
2017-02-18T13:08:50.328Z,2736
2017-02-18T13:10:00.586Z,2564
2017-02-18T13:11:10.808Z,2272
2017-02-18T13:12:21.023Z,2168
2017-02-18T13:13:30.783Z,3012
2017-02-18T13:14:40.971Z,2596
2017-02-18T13:15:50.935Z,2604
2017-02-18T13:17:00.678Z,2544
2017-02-18T13:18:10.034Z,2564
2017-02-18T13:19:20.227Z,2248
2017-02-18T13:20:30.421Z,2264
2017-02-18T13:21:40.671Z,2348
2017-02-18T13:22:49.983Z,2928
2017-02-18T13:23:59.731Z,2676
2017-02-18T13:25:10.369Z,2224
2017-02-18T13:26:20.576Z,2036
2017-02-18T13:27:30.000Z,2236
2017-02-18T13:28:40.195Z,2512
2017-02-18T13:29:49.537Z,2244
2017-02-18T13:30:59.300Z,2248
2017-02-18T13:32:09.943Z,2640
2017-02-18T13:33:21.106Z,3080
2017-02-18T13:34:30.414Z,2864
2017-02-18T13:35:40.176Z,2492
2017-02-18T13:36:49.955Z,2500
2017-02-18T13:38:00.150Z,2520
2017-02-18T13:39:09.943Z,2200
2017-02-18T13:40:19.249Z,2020
2017-02-18T13:41:28.547Z,2284
2017-02-18T13:42:38.747Z,2340
2017-02-18T13:43:49.388Z,2792
2017-02-18T13:44:59.630Z,2644
2017-02-18T13:46:10.248Z,2356
2017-02-18T13:47:19.995Z,2732
2017-02-18T13:48:29.754Z,2772
2017-02-18T13:49:39.075Z,2928
2017-02-18T13:50:48.869Z,3004
2017-02-18T13:51:58.647Z,2768
2017-02-18T13:53:08.395Z,2324
2017-02-18T13:54:19.040Z,2988
2017-02-18T13:55:28.369Z,2768
2017-02-18T13:56:38.619Z,2876
2017-02-18T13:57:48.806Z,3108
2017-02-18T13:58:58.575Z,2988
2017-02-18T14:00:09.653Z,2972
2017-02-18T14:01:18.971Z,2668
2017-02-18T14:02:28.768Z,2824
2017-02-18T14:03:38.094Z,2984
2017-02-18T14:04:47.412Z,3004
2017-02-18T14:05:57.159Z,3056
2017-02-18T14:07:07.807Z,3060
2017-02-18T14:08:17.629Z,3000
2017-02-18T14:09:27.406Z,2948
2017-02-18T14:10:37.171Z,2896
2017-02-18T14:11:47.361Z,2928
2017-02-18T14:12:57.574Z,3344
2017-02-18T14:14:07.379Z,3256
2017-02-18T14:15:17.137Z,3524
2017-02-18T14:16:26.893Z,2612
2017-02-18T14:17:37.976Z,2660
2017-02-18T14:18:47.281Z,3056
2017-02-18T14:19:57.541Z,3088
2017-02-18T14:21:08.174Z,2800
2017-02-18T14:22:18.391Z,2600
2017-02-18T14:23:28.585Z,2724
2017-02-18T14:24:38.349Z,2920
2017-02-18T14:25:48.584Z,2556
2017-02-18T14:26:58.342Z,2568
2017-02-18T14:28:08.088Z,2472
2017-02-18T14:29:17.416Z,2368
2017-02-18T14:30:26.715Z,2480
2017-02-18T14:31:36.073Z,2288
2017-02-18T14:32:45.831Z,2140
2017-02-18T14:33:55.584Z,2516
2017-02-18T14:35:05.335Z,2388
2017-02-18T14:36:15.550Z,2260
2017-02-18T14:37:25.799Z,2444
2017-02-18T14:38:35.113Z,2444
2017-02-18T14:39:44.431Z,2448
2017-02-18T14:40:54.643Z,2096
2017-02-18T14:42:04.836Z,1896
2017-02-18T14:43:14.193Z,1852
2017-02-18T14:44:24.406Z,1848
2017-02-18T14:45:33.709Z,1880
2017-02-18T14:46:43.480Z,2188
2017-02-18T14:47:54.118Z,2104
2017-02-18T14:49:04.364Z,1896
2017-02-18T14:50:14.117Z,1916
2017-02-18T14:51:23.882Z,2008
2017-02-18T14:52:33.227Z,2048
2017-02-18T14:53:42.981Z,2256
2017-02-18T14:54:52.860Z,1992
2017-02-18T14:56:03.502Z,1776
2017-02-18T14:57:14.132Z,1964
2017-02-18T14:58:23.454Z,2048
2017-02-18T14:59:33.654Z,1836
2017-02-18T15:00:43.047Z,1892
2017-02-18T15:01:52.828Z,1960
2017-02-18T15:03:02.606Z,1692
2017-02-18T15:04:11.915Z,1624
2017-02-18T15:05:21.232Z,1984
2017-02-18T15:06:30.598Z,2088
2017-02-18T15:07:40.363Z,1696
2017-02-18T15:08:49.674Z,1420
2017-02-18T15:09:59.427Z,1352
2017-02-18T15:11:09.206Z,1460
2017-02-18T15:12:19.028Z,1528
2017-02-18T15:13:28.804Z,1572
2017-02-18T15:14:39.002Z,1508
2017-02-18T15:15:48.303Z,1748
2017-02-18T15:16:58.058Z,1468
2017-02-18T15:18:07.863Z,1060
2017-02-18T15:19:18.082Z,1196
2017-02-18T15:20:28.299Z,1308
2017-02-18T15:21:37.621Z,1340
2017-02-18T15:22:47.418Z,1344
2017-02-18T15:23:57.211Z,1364
2017-02-18T15:25:06.520Z,1360
2017-02-18T15:26:15.824Z,1196
2017-02-18T15:27:26.002Z,1420
2017-02-18T15:28:35.752Z,1248
2017-02-18T15:29:45.567Z,1256
2017-02-18T15:30:55.770Z,864
2017-02-18T15:32:05.539Z,776
2017-02-18T15:33:15.332Z,860
2017-02-18T15:34:25.956Z,1040
2017-02-18T15:35:36.635Z,1200
2017-02-18T15:36:45.946Z,1028
2017-02-18T15:37:56.635Z,936
2017-02-18T15:39:06.846Z,808
2017-02-18T15:40:16.613Z,832
2017-02-18T15:41:26.864Z,944
2017-02-18T15:42:36.169Z,776
2017-02-18T15:43:45.929Z,748
2017-02-18T15:44:55.676Z,700
2017-02-18T15:46:05.428Z,680
2017-02-18T15:47:15.686Z,652
2017-02-18T15:48:25.064Z,648
2017-02-18T15:49:34.396Z,648
2017-02-18T15:50:44.149Z,624
2017-02-18T15:51:53.928Z,628
2017-02-18T15:53:03.297Z,620
2017-02-18T15:54:13.058Z,696
2017-02-18T15:55:22.811Z,728
2017-02-18T15:56:32.140Z,636
2017-02-18T15:57:41.458Z,656
2017-02-18T15:58:50.829Z,724
2017-02-18T16:00:00.588Z,728
2017-02-18T16:01:09.909Z,692
2017-02-18T16:02:19.673Z,640
2017-02-18T16:03:28.982Z,520
2017-02-18T16:04:38.348Z,488
2017-02-18T16:05:48.541Z,476
2017-02-18T16:06:58.736Z,460
2017-02-18T16:08:08.946Z,432
2017-02-18T16:09:18.688Z,404
2017-02-18T16:10:28.500Z,384
2017-02-18T16:11:39.141Z,364
2017-02-18T16:12:49.756Z,348